Saint George Island, Florida
Current Conditions -  °F | °C
As of 2:53 AM on Friday 19 Dec 2014 (Local Time) from KAAF Reporting Station
Clear Clear  
Wind Chill: 49°   Ceiling: Unl
Heat Index: 49°   Visibility: 10mi
Dew Point: 44°   Wind: 0mph
Humidity: 83%   Direction: NA
Pressure: 30.12"   Gusts: NA
Location:  29.8852°N, 84.8748°W
Report Text: KAAF 190753Z AUTO 00000KT 10SM CLR 09/07 A3012 RMK AO2 SLP199 T00940067 TSNO $
Loading
Personal Weather Stations






























Interactive Weather Map New forecast layout! Learn more

10-Day Weather Forecast

Advertisements
Track Severe Weather on mobile